sensor_id;sensor_type;location;lat;lon;timestamp;P1;durP1;ratioP1;P2;durP2;ratioP2
22829;SDS011;11581;51.250;6.778;2023-07-28T00:00:36;1.77;;;0.90;;
22829;SDS011;11581;51.250;6.778;2023-07-28T00:03:03;1.02;;;0.90;;
22829;SDS011;11581;51.250;6.778;2023-07-28T00:05:30;1.77;;;1.10;;
22829;SDS011;11581;51.250;6.778;2023-07-28T00:07:57;2.75;;;0.95;;
22829;SDS011;11581;51.250;6.778;2023-07-28T00:10:24;1.38;;;0.77;;
22829;SDS011;11581;51.250;6.778;2023-07-28T00:12:52;1.85;;;1.10;;
22829;SDS011;11581;51.250;6.778;2023-07-28T00:15:19;2.35;;;1.10;;
22829;SDS011;11581;51.250;6.778;2023-07-28T00:17:45;1.17;;;0.70;;
22829;SDS011;11581;51.250;6.778;2023-07-28T00:20:12;1.83;;;0.88;;
22829;SDS011;11581;51.250;6.778;2023-07-28T00:22:39;2.25;;;1.00;;
22829;SDS011;11581;51.250;6.778;2023-07-28T00:25:06;1.83;;;1.20;;
22829;SDS011;11581;51.250;6.778;2023-07-28T00:27:34;5.07;;;1.00;;
22829;SDS011;11581;51.250;6.778;2023-07-28T00:30:03;1.67;;;0.93;;
22829;SDS011;11581;51.250;6.778;2023-07-28T00:32:30;4.05;;;1.25;;
22829;SDS011;11581;51.250;6.778;2023-07-28T00:34:57;2.13;;;1.00;;
22829;SDS011;11581;51.250;6.778;2023-07-28T00:37:24;1.23;;;0.80;;
22829;SDS011;11581;51.250;6.778;2023-07-28T00:39:51;5.03;;;1.00;;
22829;SDS011;11581;51.250;6.778;2023-07-28T00:42:20;3.20;;;1.23;;
22829;SDS011;11581;51.250;6.778;2023-07-28T00:44:48;2.65;;;0.93;;
22829;SDS011;11581;51.250;6.778;2023-07-28T00:47:16;2.17;;;1.00;;
22829;SDS011;11581;51.250;6.778;2023-07-28T00:49:44;3.72;;;1.30;;
22829;SDS011;11581;51.250;6.778;2023-07-28T00:52:12;1.10;;;0.80;;
22829;SDS011;11581;51.250;6.778;2023-07-28T00:54:39;2.63;;;1.20;;
22829;SDS011;11581;51.250;6.778;2023-07-28T00:57:06;3.42;;;1.40;;
22829;SDS011;11581;51.250;6.778;2023-07-28T00:59:34;2.47;;;1.80;;
22829;SDS011;11581;51.250;6.778;2023-07-28T01:02:00;5.22;;;2.20;;
22829;SDS011;11581;51.250;6.778;2023-07-28T01:04:30;3.75;;;2.40;;
22829;SDS011;11581;51.250;6.778;2023-07-28T01:07:01;3.53;;;2.08;;
22829;SDS011;11581;51.250;6.778;2023-07-28T01:09:37;3.70;;;2.42;;
22829;SDS011;11581;51.250;6.778;2023-07-28T01:14:36;8.48;;;3.60;;
22829;SDS011;11581;51.250;6.778;2023-07-28T01:17:03;6.35;;;3.70;;
22829;SDS011;11581;51.250;6.778;2023-07-28T01:19:33;5.03;;;3.40;;
22829;SDS011;11581;51.250;6.778;2023-07-28T01:22:04;5.18;;;4.05;;
22829;SDS011;11581;51.250;6.778;2023-07-28T01:24:48;4.53;;;3.60;;
22829;SDS011;11581;51.250;6.778;2023-07-28T01:27:22;4.75;;;4.18;;
22829;SDS011;11581;51.250;6.778;2023-07-28T01:29:50;5.43;;;3.40;;
22829;SDS011;11581;51.250;6.778;2023-07-28T01:32:17;5.18;;;3.55;;
22829;SDS011;11581;51.250;6.778;2023-07-28T01:34:44;5.45;;;4.30;;
22829;SDS011;11581;51.250;6.778;2023-07-28T01:37:11;4.82;;;3.78;;
22829;SDS011;11581;51.250;6.778;2023-07-28T01:39:38;6.15;;;4.00;;
22829;SDS011;11581;51.250;6.778;2023-07-28T01:42:06;6.40;;;4.45;;
22829;SDS011;11581;51.250;6.778;2023-07-28T01:44:35;6.25;;;4.40;;
22829;SDS011;11581;51.250;6.778;2023-07-28T01:47:02;6.68;;;5.18;;
22829;SDS011;11581;51.250;6.778;2023-07-28T01:49:29;6.07;;;5.13;;
22829;SDS011;11581;51.250;6.778;2023-07-28T01:51:55;6.75;;;5.88;;
22829;SDS011;11581;51.250;6.778;2023-07-28T01:54:22;6.07;;;5.47;;
22829;SDS011;11581;51.250;6.778;2023-07-28T01:56:51;6.97;;;6.13;;
22829;SDS011;11581;51.250;6.778;2023-07-28T01:59:18;9.32;;;6.75;;
22829;SDS011;11581;51.250;6.778;2023-07-28T02:01:47;6.63;;;5.50;;
22829;SDS011;11581;51.250;6.778;2023-07-28T02:04:14;8.32;;;6.22;;
22829;SDS011;11581;51.250;6.778;2023-07-28T02:06:41;7.53;;;6.10;;
22829;SDS011;11581;51.250;6.778;2023-07-28T02:09:08;4.72;;;3.58;;
22829;SDS011;11581;51.250;6.778;2023-07-28T02:11:35;4.22;;;3.58;;
22829;SDS011;11581;51.250;6.778;2023-07-28T02:14:01;3.50;;;2.83;;
22829;SDS011;11581;51.250;6.778;2023-07-28T02:16:28;4.68;;;2.50;;
22829;SDS011;11581;51.250;6.778;2023-07-28T02:18:58;3.38;;;1.77;;
22829;SDS011;11581;51.250;6.778;2023-07-28T02:21:25;2.50;;;1.83;;
22829;SDS011;11581;51.250;6.778;2023-07-28T02:23:53;4.10;;;1.55;;
22829;SDS011;11581;51.250;6.778;2023-07-28T02:26:20;3.17;;;1.52;;
22829;SDS011;11581;51.250;6.778;2023-07-28T02:28:46;3.08;;;1.40;;
22829;SDS011;11581;51.250;6.778;2023-07-28T02:31:14;2.92;;;1.27;;
22829;SDS011;11581;51.250;6.778;2023-07-28T02:33:41;2.00;;;1.35;;
22829;SDS011;11581;51.250;6.778;2023-07-28T02:36:09;2.20;;;1.10;;
22829;SDS011;11581;51.250;6.778;2023-07-28T02:38:36;2.60;;;1.30;;
22829;SDS011;11581;51.250;6.778;2023-07-28T02:41:03;2.95;;;1.48;;
22829;SDS011;11581;51.250;6.778;2023-07-28T02:43:30;1.95;;;1.35;;
22829;SDS011;11581;51.250;6.778;2023-07-28T02:45:57;2.42;;;1.42;;
22829;SDS011;11581;51.250;6.778;2023-07-28T02:48:24;1.80;;;1.40;;
22829;SDS011;11581;51.250;6.778;2023-07-28T02:50:51;3.25;;;1.70;;
22829;SDS011;11581;51.250;6.778;2023-07-28T02:53:20;2.70;;;1.40;;
22829;SDS011;11581;51.250;6.778;2023-07-28T02:55:47;2.92;;;1.55;;
22829;SDS011;11581;51.250;6.778;2023-07-28T02:58:14;2.80;;;1.77;;
22829;SDS011;11581;51.250;6.778;2023-07-28T03:00:41;2.10;;;1.70;;
22829;SDS011;11581;51.250;6.778;2023-07-28T03:03:14;3.58;;;1.75;;
22829;SDS011;11581;51.250;6.778;2023-07-28T03:05:41;3.88;;;2.20;;
22829;SDS011;11581;51.250;6.778;2023-07-28T03:08:25;4.07;;;2.22;;
22829;SDS011;11581;51.250;6.778;2023-07-28T03:10:59;2.70;;;2.28;;
22829;SDS011;11581;51.250;6.778;2023-07-28T03:13:27;3.90;;;3.05;;
22829;SDS011;11581;51.250;6.778;2023-07-28T03:15:54;4.45;;;3.17;;
22829;SDS011;11581;51.250;6.778;2023-07-28T03:18:22;3.42;;;2.90;;
22829;SDS011;11581;51.250;6.778;2023-07-28T03:20:49;4.93;;;3.55;;
22829;SDS011;11581;51.250;6.778;2023-07-28T03:23:16;5.40;;;3.53;;
22829;SDS011;11581;51.250;6.778;2023-07-28T03:25:44;5.50;;;4.30;;
22829;SDS011;11581;51.250;6.778;2023-07-28T03:28:11;5.07;;;3.90;;
22829;SDS011;11581;51.250;6.778;2023-07-28T03:30:38;4.80;;;4.25;;
22829;SDS011;11581;51.250;6.778;2023-07-28T03:33:06;5.63;;;5.05;;
22829;SDS011;11581;51.250;6.778;2023-07-28T03:35:34;6.03;;;4.82;;
22829;SDS011;11581;51.250;6.778;2023-07-28T03:38:06;5.68;;;4.10;;
22829;SDS011;11581;51.250;6.778;2023-07-28T03:40:33;4.82;;;4.00;;
22829;SDS011;11581;51.250;6.778;2023-07-28T03:43:01;6.30;;;4.78;;
22829;SDS011;11581;51.250;6.778;2023-07-28T03:45:28;5.53;;;3.60;;
22829;SDS011;11581;51.250;6.778;2023-07-28T03:47:55;3.38;;;2.60;;
22829;SDS011;11581;51.250;6.778;2023-07-28T03:50:22;2.78;;;2.30;;
22829;SDS011;11581;51.250;6.778;2023-07-28T03:52:51;3.67;;;2.05;;
22829;SDS011;11581;51.250;6.778;2023-07-28T03:55:18;2.80;;;1.90;;
22829;SDS011;11581;51.250;6.778;2023-07-28T03:57:45;4.80;;;1.83;;
22829;SDS011;11581;51.250;6.778;2023-07-28T04:00:14;3.17;;;1.75;;
22829;SDS011;11581;51.250;6.778;2023-07-28T04:02:41;3.88;;;1.67;;
22829;SDS011;11581;51.250;6.778;2023-07-28T04:05:08;5.07;;;2.05;;
22829;SDS011;11581;51.250;6.778;2023-07-28T04:07:35;14.27;;;2.20;;
22829;SDS011;11581;51.250;6.778;2023-07-28T04:10:02;3.67;;;1.92;;
22829;SDS011;11581;51.250;6.778;2023-07-28T04:12:30;3.10;;;2.13;;
22829;SDS011;11581;51.250;6.778;2023-07-28T04:14:57;2.63;;;2.00;;
22829;SDS011;11581;51.250;6.778;2023-07-28T04:17:25;4.68;;;2.17;;
22829;SDS011;11581;51.250;6.778;2023-07-28T04:19:52;6.63;;;2.70;;
22829;SDS011;11581;51.250;6.778;2023-07-28T04:22:18;3.15;;;2.10;;
22829;SDS011;11581;51.250;6.778;2023-07-28T04:24:47;2.92;;;2.10;;
22829;SDS011;11581;51.250;6.778;2023-07-28T04:27:14;2.55;;;1.80;;
22829;SDS011;11581;51.250;6.778;2023-07-28T04:29:42;4.28;;;1.65;;
22829;SDS011;11581;51.250;6.778;2023-07-28T04:32:10;4.85;;;2.30;;
22829;SDS011;11581;51.250;6.778;2023-07-28T04:34:41;3.97;;;1.70;;
22829;SDS011;11581;51.250;6.778;2023-07-28T04:37:14;2.78;;;1.70;;
22829;SDS011;11581;51.250;6.778;2023-07-28T04:39:52;3.38;;;1.63;;
22829;SDS011;11581;51.250;6.778;2023-07-28T04:42:19;2.45;;;1.20;;
22829;SDS011;11581;51.250;6.778;2023-07-28T04:44:46;1.98;;;0.90;;
22829;SDS011;11581;51.250;6.778;2023-07-28T04:47:15;1.60;;;1.02;;
22829;SDS011;11581;51.250;6.778;2023-07-28T04:49:44;1.70;;;1.10;;
22829;SDS011;11581;51.250;6.778;2023-07-28T04:52:11;4.43;;;1.10;;
22829;SDS011;11581;51.250;6.778;2023-07-28T04:54:46;2.08;;;1.10;;
22829;SDS011;11581;51.250;6.778;2023-07-28T04:57:13;4.10;;;1.20;;
22829;SDS011;11581;51.250;6.778;2023-07-28T04:59:43;2.53;;;1.15;;
22829;SDS011;11581;51.250;6.778;2023-07-28T05:02:10;2.58;;;1.00;;
22829;SDS011;11581;51.250;6.778;2023-07-28T05:04:36;1.33;;;0.90;;
22829;SDS011;11581;51.250;6.778;2023-07-28T05:07:05;4.03;;;1.35;;
22829;SDS011;11581;51.250;6.778;2023-07-28T05:09:32;2.08;;;1.25;;
22829;SDS011;11581;51.250;6.778;2023-07-28T05:11:59;1.15;;;1.00;;
22829;SDS011;11581;51.250;6.778;2023-07-28T05:14:32;2.67;;;1.10;;
22829;SDS011;11581;51.250;6.778;2023-07-28T05:16:58;2.47;;;1.42;;
22829;SDS011;11581;51.250;6.778;2023-07-28T05:19:41;1.60;;;1.30;;
22829;SDS011;11581;51.250;6.778;2023-07-28T05:22:41;1.80;;;1.25;;
22829;SDS011;11581;51.250;6.778;2023-07-28T05:25:08;4.57;;;1.52;;
22829;SDS011;11581;51.250;6.778;2023-07-28T05:27:39;4.88;;;1.55;;
22829;SDS011;11581;51.250;6.778;2023-07-28T05:30:07;3.70;;;1.75;;
22829;SDS011;11581;51.250;6.778;2023-07-28T05:32:34;3.08;;;1.80;;
22829;SDS011;11581;51.250;6.778;2023-07-28T05:35:21;2.13;;;1.20;;
22829;SDS011;11581;51.250;6.778;2023-07-28T05:37:49;1.95;;;1.27;;
22829;SDS011;11581;51.250;6.778;2023-07-28T05:40:16;1.52;;;1.10;;
22829;SDS011;11581;51.250;6.778;2023-07-28T05:42:43;3.72;;;1.45;;
22829;SDS011;11581;51.250;6.778;2023-07-28T05:45:10;2.60;;;1.30;;
22829;SDS011;11581;51.250;6.778;2023-07-28T05:47:37;2.53;;;1.38;;
22829;SDS011;11581;51.250;6.778;2023-07-28T05:50:05;1.90;;;1.10;;
22829;SDS011;11581;51.250;6.778;2023-07-28T05:52:32;2.00;;;1.30;;
22829;SDS011;11581;51.250;6.778;2023-07-28T05:55:00;2.63;;;0.93;;
22829;SDS011;11581;51.250;6.778;2023-07-28T05:57:27;3.17;;;1.30;;
22829;SDS011;11581;51.250;6.778;2023-07-28T05:59:55;2.65;;;1.40;;
22829;SDS011;11581;51.250;6.778;2023-07-28T06:02:22;1.90;;;1.10;;
22829;SDS011;11581;51.250;6.778;2023-07-28T06:04:54;2.60;;;1.20;;
22829;SDS011;11581;51.250;6.778;2023-07-28T06:07:22;5.50;;;1.38;;
22829;SDS011;11581;51.250;6.778;2023-07-28T06:09:49;3.03;;;0.90;;
22829;SDS011;11581;51.250;6.778;2023-07-28T06:12:17;1.88;;;1.20;;
22829;SDS011;11581;51.250;6.778;2023-07-28T06:14:44;1.77;;;0.82;;
22829;SDS011;11581;51.250;6.778;2023-07-28T06:17:13;4.43;;;1.08;;
22829;SDS011;11581;51.250;6.778;2023-07-28T06:19:40;2.20;;;1.10;;
22829;SDS011;11581;51.250;6.778;2023-07-28T06:22:07;2.80;;;0.98;;
22829;SDS011;11581;51.250;6.778;2023-07-28T06:24:39;1.15;;;0.82;;
22829;SDS011;11581;51.250;6.778;2023-07-28T06:27:07;1.83;;;1.00;;
22829;SDS011;11581;51.250;6.778;2023-07-28T06:29:38;2.22;;;1.00;;
22829;SDS011;11581;51.250;6.778;2023-07-28T06:32:05;3.78;;;1.20;;
22829;SDS011;11581;51.250;6.778;2023-07-28T06:34:34;5.10;;;1.60;;
22829;SDS011;11581;51.250;6.778;2023-07-28T06:37:01;2.45;;;1.20;;
22829;SDS011;11581;51.250;6.778;2023-07-28T06:39:28;1.35;;;0.90;;
22829;SDS011;11581;51.250;6.778;2023-07-28T06:41:55;1.77;;;1.15;;
22829;SDS011;11581;51.250;6.778;2023-07-28T06:44:23;1.88;;;1.45;;
22829;SDS011;11581;51.250;6.778;2023-07-28T06:46:52;2.65;;;1.13;;
22829;SDS011;11581;51.250;6.778;2023-07-28T06:49:19;1.90;;;1.10;;
22829;SDS011;11581;51.250;6.778;2023-07-28T06:51:46;2.85;;;1.30;;
22829;SDS011;11581;51.250;6.778;2023-07-28T06:54:12;2.38;;;1.10;;
22829;SDS011;11581;51.250;6.778;2023-07-28T06:56:40;1.77;;;1.08;;
22829;SDS011;11581;51.250;6.778;2023-07-28T06:59:07;2.05;;;1.27;;
22829;SDS011;11581;51.250;6.778;2023-07-28T07:01:34;1.83;;;1.25;;
22829;SDS011;11581;51.250;6.778;2023-07-28T07:04:02;2.17;;;1.40;;
22829;SDS011;11581;51.250;6.778;2023-07-28T07:06:31;1.70;;;0.95;;
22829;SDS011;11581;51.250;6.778;2023-07-28T07:08:58;6.80;;;1.80;;
22829;SDS011;11581;51.250;6.778;2023-07-28T07:11:25;2.03;;;1.38;;
22829;SDS011;11581;51.250;6.778;2023-07-28T07:13:52;2.22;;;1.25;;
22829;SDS011;11581;51.250;6.778;2023-07-28T07:16:18;7.25;;;2.20;;
22829;SDS011;11581;51.250;6.778;2023-07-28T07:18:45;1.98;;;1.17;;
22829;SDS011;11581;51.250;6.778;2023-07-28T07:21:13;8.05;;;1.67;;
22829;SDS011;11581;51.250;6.778;2023-07-28T07:23:40;3.00;;;1.10;;
22829;SDS011;11581;51.250;6.778;2023-07-28T07:26:24;2.47;;;1.45;;
22829;SDS011;11581;51.250;6.778;2023-07-28T07:28:51;2.60;;;1.20;;
22829;SDS011;11581;51.250;6.778;2023-07-28T07:31:18;1.35;;;0.93;;
22829;SDS011;11581;51.250;6.778;2023-07-28T07:33:45;1.35;;;0.90;;
22829;SDS011;11581;51.250;6.778;2023-07-28T07:36:14;1.38;;;0.90;;
22829;SDS011;11581;51.250;6.778;2023-07-28T07:38:43;1.65;;;0.70;;
22829;SDS011;11581;51.250;6.778;2023-07-28T07:41:11;2.03;;;0.95;;
22829;SDS011;11581;51.250;6.778;2023-07-28T07:43:38;2.00;;;0.95;;
22829;SDS011;11581;51.250;6.778;2023-07-28T07:46:05;1.92;;;1.00;;
22829;SDS011;11581;51.250;6.778;2023-07-28T07:48:33;0.90;;;0.75;;
22829;SDS011;11581;51.250;6.778;2023-07-28T07:51:02;1.55;;;0.77;;
22829;SDS011;11581;51.250;6.778;2023-07-28T07:53:30;3.95;;;1.40;;
22829;SDS011;11581;51.250;6.778;2023-07-28T07:55:57;9.80;;;1.60;;
22829;SDS011;11581;51.250;6.778;2023-07-28T07:58:23;5.15;;;1.00;;
22829;SDS011;11581;51.250;6.778;2023-07-28T08:00:51;1.50;;;1.00;;
22829;SDS011;11581;51.250;6.778;2023-07-28T08:03:17;2.17;;;1.10;;
22829;SDS011;11581;51.250;6.778;2023-07-28T08:05:44;3.67;;;1.00;;
22829;SDS011;11581;51.250;6.778;2023-07-28T08:08:11;2.08;;;1.00;;
22829;SDS011;11581;51.250;6.778;2023-07-28T08:10:41;3.20;;;1.23;;
22829;SDS011;11581;51.250;6.778;2023-07-28T08:13:09;5.90;;;1.50;;
22829;SDS011;11581;51.250;6.778;2023-07-28T08:15:36;2.70;;;1.17;;
22829;SDS011;11581;51.250;6.778;2023-07-28T08:18:03;2.20;;;1.30;;
22829;SDS011;11581;51.250;6.778;2023-07-28T08:20:29;9.10;;;1.58;;
22829;SDS011;11581;51.250;6.778;2023-07-28T08:22:56;6.25;;;1.65;;
22829;SDS011;11581;51.250;6.778;2023-07-28T08:25:23;5.25;;;1.75;;
22829;SDS011;11581;51.250;6.778;2023-07-28T08:27:51;5.88;;;1.73;;
22829;SDS011;11581;51.250;6.778;2023-07-28T08:30:18;3.20;;;1.55;;
22829;SDS011;11581;51.250;6.778;2023-07-28T08:32:45;3.95;;;1.40;;
22829;SDS011;11581;51.250;6.778;2023-07-28T08:35:12;9.38;;;2.30;;
22829;SDS011;11581;51.250;6.778;2023-07-28T08:37:39;2.47;;;1.60;;
22829;SDS011;11581;51.250;6.778;2023-07-28T08:40:06;2.92;;;1.52;;
22829;SDS011;11581;51.250;6.778;2023-07-28T08:42:35;2.97;;;1.40;;
22829;SDS011;11581;51.250;6.778;2023-07-28T08:45:05;3.65;;;1.40;;
22829;SDS011;11581;51.250;6.778;2023-07-28T08:47:33;1.75;;;1.33;;
22829;SDS011;11581;51.250;6.778;2023-07-28T08:50:00;2.78;;;1.55;;
22829;SDS011;11581;51.250;6.778;2023-07-28T08:52:28;2.75;;;1.20;;
22829;SDS011;11581;51.250;6.778;2023-07-28T08:54:55;1.50;;;1.30;;
22829;SDS011;11581;51.250;6.778;2023-07-28T08:57:22;2.28;;;1.35;;
22829;SDS011;11581;51.250;6.778;2023-07-28T08:59:48;1.30;;;0.90;;
22829;SDS011;11581;51.250;6.778;2023-07-28T09:02:18;1.48;;;1.10;;
22829;SDS011;11581;51.250;6.778;2023-07-28T09:04:46;1.95;;;1.17;;
22829;SDS011;11581;51.250;6.778;2023-07-28T09:07:13;5.40;;;1.20;;
22829;SDS011;11581;51.250;6.778;2023-07-28T09:09:41;1.95;;;1.25;;
22829;SDS011;11581;51.250;6.778;2023-07-28T09:12:08;4.20;;;1.50;;
22829;SDS011;11581;51.250;6.778;2023-07-28T09:14:36;2.58;;;1.15;;
22829;SDS011;11581;51.250;6.778;2023-07-28T09:17:07;3.80;;;1.20;;
22829;SDS011;11581;51.250;6.778;2023-07-28T09:19:50;2.28;;;1.42;;
22829;SDS011;11581;51.250;6.778;2023-07-28T09:22:18;2.10;;;1.10;;
22829;SDS011;11581;51.250;6.778;2023-07-28T09:24:45;2.40;;;1.00;;
22829;SDS011;11581;51.250;6.778;2023-07-28T09:27:19;1.73;;;0.95;;
22829;SDS011;11581;51.250;6.778;2023-07-28T09:29:48;1.98;;;0.80;;
22829;SDS011;11581;51.250;6.778;2023-07-28T09:32:16;2.05;;;0.90;;
22829;SDS011;11581;51.250;6.778;2023-07-28T09:35:06;3.33;;;1.02;;
22829;SDS011;11581;51.250;6.778;2023-07-28T09:37:36;3.58;;;0.80;;
22829;SDS011;11581;51.250;6.778;2023-07-28T09:40:04;3.50;;;1.00;;
22829;SDS011;11581;51.250;6.778;2023-07-28T09:42:36;1.30;;;0.60;;
22829;SDS011;11581;51.250;6.778;2023-07-28T09:45:04;4.40;;;0.85;;
22829;SDS011;11581;51.250;6.778;2023-07-28T09:47:32;3.22;;;0.88;;
22829;SDS011;11581;51.250;6.778;2023-07-28T09:50:01;1.45;;;0.70;;
22829;SDS011;11581;51.250;6.778;2023-07-28T09:52:33;2.05;;;0.73;;
22829;SDS011;11581;51.250;6.778;2023-07-28T09:55:03;3.28;;;0.80;;
22829;SDS011;11581;51.250;6.778;2023-07-28T09:57:34;1.83;;;0.77;;
22829;SDS011;11581;51.250;6.778;2023-07-28T10:00:05;1.42;;;0.70;;
22829;SDS011;11581;51.250;6.778;2023-07-28T10:02:37;1.08;;;0.80;;
22829;SDS011;11581;51.250;6.778;2023-07-28T10:05:05;5.68;;;0.88;;
22829;SDS011;11581;51.250;6.778;2023-07-28T10:07:35;1.33;;;0.65;;
22829;SDS011;11581;51.250;6.778;2023-07-28T10:10:03;1.55;;;0.73;;
22829;SDS011;11581;51.250;6.778;2023-07-28T10:12:39;1.80;;;0.63;;
22829;SDS011;11581;51.250;6.778;2023-07-28T10:15:11;2.40;;;0.80;;
22829;SDS011;11581;51.250;6.778;2023-07-28T10:17:42;1.25;;;0.63;;
22829;SDS011;11581;51.250;6.778;2023-07-28T10:23:04;3.67;;;1.02;;
22829;SDS011;11581;51.250;6.778;2023-07-28T10:25:35;2.08;;;0.57;;
22829;SDS011;11581;51.250;6.778;2023-07-28T10:28:04;3.85;;;0.70;;
22829;SDS011;11581;51.250;6.778;2023-07-28T10:30:35;11.73;;;0.85;;
22829;SDS011;11581;51.250;6.778;2023-07-28T10:33:04;5.10;;;0.82;;
22829;SDS011;11581;51.250;6.778;2023-07-28T10:35:31;1.85;;;0.70;;
22829;SDS011;11581;51.250;6.778;2023-07-28T10:41:07;8.98;;;1.27;;
22829;SDS011;11581;51.250;6.778;2023-07-28T10:43:35;3.80;;;0.60;;
22829;SDS011;11581;51.250;6.778;2023-07-28T10:46:03;1.35;;;0.50;;
22829;SDS011;11581;51.250;6.778;2023-07-28T10:48:31;0.70;;;0.50;;
22829;SDS011;11581;51.250;6.778;2023-07-28T10:51:00;0.80;;;0.50;;
22829;SDS011;11581;51.250;6.778;2023-07-28T10:53:28;1.00;;;0.60;;
22829;SDS011;11581;51.250;6.778;2023-07-28T10:56:00;1.13;;;0.60;;
22829;SDS011;11581;51.250;6.778;2023-07-28T10:58:28;1.67;;;0.68;;
22829;SDS011;11581;51.250;6.778;2023-07-28T11:00:55;2.03;;;0.50;;
22829;SDS011;11581;51.250;6.778;2023-07-28T11:03:22;0.57;;;0.50;;
22829;SDS011;11581;51.250;6.778;2023-07-28T11:05:49;0.38;;;0.30;;
22829;SDS011;11581;51.250;6.778;2023-07-28T11:08:16;1.48;;;0.65;;
22829;SDS011;11581;51.250;6.778;2023-07-28T11:10:45;2.20;;;0.60;;
22829;SDS011;11581;51.250;6.778;2023-07-28T11:13:13;1.20;;;0.52;;
22829;SDS011;11581;51.250;6.778;2023-07-28T11:15:40;0.95;;;0.60;;
22829;SDS011;11581;51.250;6.778;2023-07-28T11:18:08;12.85;;;0.75;;
22829;SDS011;11581;51.250;6.778;2023-07-28T11:20:35;3.92;;;0.90;;
22829;SDS011;11581;51.250;6.778;2023-07-28T11:23:02;0.43;;;0.30;;
22829;SDS011;11581;51.250;6.778;2023-07-28T11:25:30;0.90;;;0.47;;
22829;SDS011;11581;51.250;6.778;2023-07-28T11:28:02;1.25;;;0.40;;
22829;SDS011;11581;51.250;6.778;2023-07-28T11:30:32;2.38;;;0.40;;
22829;SDS011;11581;51.250;6.778;2023-07-28T11:33:04;0.40;;;0.25;;
22829;SDS011;11581;51.250;6.778;2023-07-28T11:35:37;8.80;;;0.65;;
22829;SDS011;11581;51.250;6.778;2023-07-28T11:38:05;0.77;;;0.43;;
22829;SDS011;11581;51.250;6.778;2023-07-28T11:40:34;0.95;;;0.50;;
22829;SDS011;11581;51.250;6.778;2023-07-28T11:43:02;0.30;;;0.10;;
22829;SDS011;11581;51.250;6.778;2023-07-28T11:45:30;0.57;;;0.20;;
22829;SDS011;11581;51.250;6.778;2023-07-28T11:47:57;5.03;;;0.50;;
22829;SDS011;11581;51.250;6.778;2023-07-28T11:50:26;0.90;;;0.43;;
22829;SDS011;11581;51.250;6.778;2023-07-28T11:52:54;6.18;;;0.88;;
22829;SDS011;11581;51.250;6.778;2023-07-28T11:55:21;1.23;;;0.38;;
22829;SDS011;11581;51.250;6.778;2023-07-28T11:57:49;2.03;;;0.30;;
22829;SDS011;11581;51.250;6.778;2023-07-28T12:00:20;0.40;;;0.25;;
22829;SDS011;11581;51.250;6.778;2023-07-28T12:03:00;10.88;;;1.33;;
22829;SDS011;11581;51.250;6.778;2023-07-28T12:05:29;0.30;;;0.28;;
22829;SDS011;11581;51.250;6.778;2023-07-28T12:07:56;0.95;;;0.30;;
22829;SDS011;11581;51.250;6.778;2023-07-28T12:10:22;0.95;;;0.45;;
22829;SDS011;11581;51.250;6.778;2023-07-28T12:12:50;1.50;;;0.60;;
22829;SDS011;11581;51.250;6.778;2023-07-28T12:15:23;0.80;;;0.35;;
22829;SDS011;11581;51.250;6.778;2023-07-28T12:18:03;0.80;;;0.32;;
22829;SDS011;11581;51.250;6.778;2023-07-28T12:20:35;0.20;;;0.20;;
22829;SDS011;11581;51.250;6.778;2023-07-28T12:23:07;4.25;;;0.43;;
22829;SDS011;11581;51.250;6.778;2023-07-28T12:25:35;2.30;;;0.30;;
22829;SDS011;11581;51.250;6.778;2023-07-28T12:28:03;1.23;;;0.50;;
22829;SDS011;11581;51.250;6.778;2023-07-28T12:30:31;2.10;;;0.45;;
22829;SDS011;11581;51.250;6.778;2023-07-28T12:32:58;1.50;;;0.30;;
22829;SDS011;11581;51.250;6.778;2023-07-28T12:35:25;0.93;;;0.30;;
22829;SDS011;11581;51.250;6.778;2023-07-28T12:37:56;3.83;;;0.20;;
22829;SDS011;11581;51.250;6.778;2023-07-28T12:40:27;0.60;;;0.40;;
22829;SDS011;11581;51.250;6.778;2023-07-28T12:42:54;1.45;;;0.50;;
22829;SDS011;11581;51.250;6.778;2023-07-28T12:45:21;0.22;;;0.20;;
22829;SDS011;11581;51.250;6.778;2023-07-28T12:47:52;0.25;;;0.20;;
22829;SDS011;11581;51.250;6.778;2023-07-28T12:50:19;0.43;;;0.20;;
22829;SDS011;11581;51.250;6.778;2023-07-28T12:52:46;0.70;;;0.28;;
22829;SDS011;11581;51.250;6.778;2023-07-28T12:55:15;0.80;;;0.30;;
22829;SDS011;11581;51.250;6.778;2023-07-28T12:57:42;0.55;;;0.20;;
22829;SDS011;11581;51.250;6.778;2023-07-28T13:00:14;0.45;;;0.30;;
22829;SDS011;11581;51.250;6.778;2023-07-28T13:02:42;0.75;;;0.40;;
22829;SDS011;11581;51.250;6.778;2023-07-28T13:05:12;0.68;;;0.32;;
22829;SDS011;11581;51.250;6.778;2023-07-28T13:07:41;2.58;;;0.30;;
22829;SDS011;11581;51.250;6.778;2023-07-28T13:10:08;4.25;;;0.52;;
22829;SDS011;11581;51.250;6.778;2023-07-28T13:12:36;4.55;;;0.40;;
22829;SDS011;11581;51.250;6.778;2023-07-28T13:15:04;1.23;;;0.50;;
22829;SDS011;11581;51.250;6.778;2023-07-28T13:17:31;0.75;;;0.40;;
22829;SDS011;11581;51.250;6.778;2023-07-28T13:19:58;0.35;;;0.35;;
22829;SDS011;11581;51.250;6.778;2023-07-28T13:22:27;0.73;;;0.32;;
22829;SDS011;11581;51.250;6.778;2023-07-28T13:24:54;0.25;;;0.20;;
22829;SDS011;11581;51.250;6.778;2023-07-28T13:27:21;0.50;;;0.20;;
22829;SDS011;11581;51.250;6.778;2023-07-28T13:29:47;0.32;;;0.25;;
22829;SDS011;11581;51.250;6.778;2023-07-28T13:32:15;1.55;;;0.30;;
22829;SDS011;11581;51.250;6.778;2023-07-28T13:34:43;2.88;;;0.40;;
22829;SDS011;11581;51.250;6.778;2023-07-28T13:37:10;0.57;;;0.22;;
22829;SDS011;11581;51.250;6.778;2023-07-28T13:39:39;0.38;;;0.30;;
22829;SDS011;11581;51.250;6.778;2023-07-28T13:42:05;0.45;;;0.32;;
22829;SDS011;11581;51.250;6.778;2023-07-28T13:44:32;1.17;;;0.40;;
22829;SDS011;11581;51.250;6.778;2023-07-28T13:46:59;0.30;;;0.20;;
22829;SDS011;11581;51.250;6.778;2023-07-28T13:49:26;0.50;;;0.22;;
22829;SDS011;11581;51.250;6.778;2023-07-28T13:51:53;0.55;;;0.28;;
22829;SDS011;11581;51.250;6.778;2023-07-28T13:54:20;0.52;;;0.20;;
22829;SDS011;11581;51.250;6.778;2023-07-28T13:56:48;0.38;;;0.20;;
22829;SDS011;11581;51.250;6.778;2023-07-28T13:59:15;0.75;;;0.40;;
22829;SDS011;11581;51.250;6.778;2023-07-28T14:01:41;0.30;;;0.30;;
22829;SDS011;11581;51.250;6.778;2023-07-28T14:04:08;0.30;;;0.20;;
22829;SDS011;11581;51.250;6.778;2023-07-28T14:06:35;1.48;;;0.25;;
22829;SDS011;11581;51.250;6.778;2023-07-28T14:09:02;0.45;;;0.35;;
22829;SDS011;11581;51.250;6.778;2023-07-28T14:11:29;0.40;;;0.30;;
22829;SDS011;11581;51.250;6.778;2023-07-28T14:13:57;0.32;;;0.32;;
22829;SDS011;11581;51.250;6.778;2023-07-28T14:16:24;0.90;;;0.50;;
22829;SDS011;11581;51.250;6.778;2023-07-28T14:18:51;0.50;;;0.35;;
22829;SDS011;11581;51.250;6.778;2023-07-28T14:21:18;0.77;;;0.50;;
22829;SDS011;11581;51.250;6.778;2023-07-28T14:23:44;0.32;;;0.25;;
22829;SDS011;11581;51.250;6.778;2023-07-28T14:26:11;0.57;;;0.40;;
22829;SDS011;11581;51.250;6.778;2023-07-28T14:28:38;1.20;;;0.50;;
22829;SDS011;11581;51.250;6.778;2023-07-28T14:31:06;2.22;;;0.65;;
22829;SDS011;11581;51.250;6.778;2023-07-28T14:33:34;2.10;;;0.57;;
22829;SDS011;11581;51.250;6.778;2023-07-28T14:36:02;1.35;;;0.40;;
22829;SDS011;11581;51.250;6.778;2023-07-28T14:38:29;0.63;;;0.40;;
22829;SDS011;11581;51.250;6.778;2023-07-28T14:40:58;1.33;;;0.50;;
22829;SDS011;11581;51.250;6.778;2023-07-28T14:43:25;0.90;;;0.40;;
22829;SDS011;11581;51.250;6.778;2023-07-28T14:45:52;2.95;;;0.60;;
22829;SDS011;11581;51.250;6.778;2023-07-28T14:48:20;1.40;;;0.55;;
22829;SDS011;11581;51.250;6.778;2023-07-28T14:50:47;2.45;;;0.60;;
22829;SDS011;11581;51.250;6.778;2023-07-28T14:53:33;2.85;;;0.77;;
22829;SDS011;11581;51.250;6.778;2023-07-28T14:56:01;2.78;;;0.60;;
22829;SDS011;11581;51.250;6.778;2023-07-28T14:58:30;0.35;;;0.30;;
22829;SDS011;11581;51.250;6.778;2023-07-28T15:00:57;2.95;;;0.50;;
22829;SDS011;11581;51.250;6.778;2023-07-28T15:03:27;1.42;;;0.30;;